createdAt,value
2018-04-28T00:00:53.371Z,9.47
2018-04-28T00:01:53.043Z,9.48
2018-04-28T00:02:52.934Z,9.47
2018-04-28T00:03:53.044Z,9.48
2018-04-28T00:04:53.103Z,9.47
2018-04-28T00:05:52.618Z,9.46
2018-04-28T00:06:53.410Z,9.43
2018-04-28T00:07:53.433Z,9.39
2018-04-28T00:08:53.383Z,9.36
2018-04-28T00:09:53.053Z,9.36
2018-04-28T00:10:53.919Z,9.34
2018-04-28T00:11:52.853Z,9.34
2018-04-28T00:12:52.257Z,9.32
2018-04-28T00:14:13.291Z,9.32
2018-04-28T00:15:14.390Z,9.32
2018-04-28T00:16:13.870Z,9.29
2018-04-28T00:17:13.773Z,9.28
2018-04-28T00:18:13.726Z,9.31
2018-04-28T00:19:23.487Z,9.31
2018-04-28T00:20:14.192Z,9.32
2018-04-28T00:21:13.771Z,9.34
2018-04-28T00:22:13.249Z,9.36
2018-04-28T00:23:14.498Z,9.36
2018-04-28T00:24:14.387Z,9.34
2018-04-28T00:25:14.381Z,9.36
2018-04-28T00:26:14.107Z,9.34
2018-04-28T00:27:14.037Z,9.34
2018-04-28T00:28:14.441Z,9.34
2018-04-28T00:29:14.499Z,9.34
2018-04-28T00:30:14.513Z,9.32
2018-04-28T00:31:14.444Z,9.32
2018-04-28T00:32:14.566Z,9.32
2018-04-28T00:33:14.123Z,9.32
2018-04-28T00:34:13.717Z,9.32
2018-04-28T00:35:13.730Z,9.34
2018-04-28T00:37:36.470Z,9.39
2018-04-28T00:38:57.574Z,9.40
2018-04-28T00:40:20.805Z,9.39
2018-04-28T00:41:19.243Z,9.40
2018-04-28T00:42:40.797Z,9.46
2018-04-28T00:43:41.783Z,9.44
2018-04-28T00:44:41.535Z,9.41
2018-04-28T00:45:41.592Z,9.41
2018-04-28T00:46:41.162Z,9.43
2018-04-28T00:47:41.321Z,9.44
2018-04-28T00:48:41.014Z,9.43
2018-04-28T00:49:42.185Z,9.41
2018-04-28T00:50:40.890Z,9.41
2018-04-28T00:51:41.538Z,9.46
2018-04-28T00:52:41.279Z,9.44
2018-04-28T00:53:40.978Z,9.46
2018-04-28T00:54:41.163Z,9.44
2018-04-28T00:55:41.052Z,9.41
2018-04-28T00:56:41.140Z,9.40
2018-04-28T00:57:41.095Z,9.40
2018-04-28T00:58:41.058Z,9.37
2018-04-28T00:59:40.740Z,9.34
2018-04-28T01:01:02.446Z,9.32
2018-04-28T01:02:02.197Z,9.29
2018-04-28T01:03:03.200Z,9.28
2018-04-28T01:04:02.992Z,9.26
2018-04-28T01:05:02.516Z,9.26
2018-04-28T01:06:23.311Z,9.25
2018-04-28T01:07:24.205Z,9.25
2018-04-28T01:08:24.993Z,9.22
2018-04-28T01:09:24.588Z,9.19
2018-04-28T01:11:04.999Z,9.22
2018-04-28T01:12:06.151Z,9.22
2018-04-28T01:13:27.852Z,9.21
2018-04-28T01:14:28.808Z,9.18
2018-04-28T01:15:28.058Z,9.16
2018-04-28T01:16:27.950Z,9.14
2018-04-28T01:17:28.046Z,9.11
2018-04-28T01:18:48.469Z,9.13
2018-04-28T01:19:49.303Z,9.11
2018-04-28T01:20:49.164Z,9.10
2018-04-28T01:21:49.018Z,9.10
2018-04-28T01:22:48.981Z,9.10
2018-04-28T01:23:49.307Z,9.08
2018-04-28T01:24:49.354Z,9.06
2018-04-28T01:25:48.889Z,9.06
2018-04-28T01:26:48.688Z,9.06
2018-04-28T01:28:29.824Z,9.06
2018-04-28T01:29:30.024Z,9.06
2018-04-28T01:30:29.907Z,9.04
2018-04-28T01:31:29.516Z,9.04
2018-04-28T01:32:30.255Z,9.04
2018-04-28T01:33:30.746Z,9.06
2018-04-28T01:34:29.447Z,9.08
2018-04-28T01:35:30.460Z,9.10
2018-04-28T01:36:30.576Z,9.10
2018-04-28T01:37:30.516Z,9.10
2018-04-28T01:38:30.388Z,9.11
2018-04-28T01:39:33.343Z,9.13
2018-04-28T01:40:30.498Z,9.13
2018-04-28T01:41:30.590Z,9.13
2018-04-28T01:42:29.648Z,9.13
2018-04-28T01:43:29.472Z,9.14
2018-04-28T01:44:50.871Z,9.14
2018-04-28T01:45:54.096Z,9.16
2018-04-28T01:46:51.251Z,9.16
2018-04-28T01:47:50.943Z,9.14
2018-04-28T01:48:51.817Z,9.13
2018-04-28T01:49:51.556Z,9.11
2018-04-28T01:50:51.326Z,9.10
2018-04-28T01:51:51.295Z,9.11
2018-04-28T01:52:51.135Z,9.13
2018-04-28T01:53:50.751Z,9.18
2018-04-28T01:54:51.770Z,9.19
2018-04-28T01:55:51.608Z,9.21
2018-04-28T01:56:51.251Z,9.21
2018-04-28T01:57:51.447Z,9.18
2018-04-28T01:58:50.966Z,9.19
2018-04-28T01:59:51.886Z,9.21
2018-04-28T02:00:51.829Z,9.19
2018-04-28T02:01:51.244Z,9.22
2018-04-28T02:02:53.327Z,9.21
2018-04-28T02:05:13.420Z,9.23
2018-04-28T02:06:12.935Z,9.22
2018-04-28T02:07:12.919Z,9.23
2018-04-28T02:08:12.364Z,9.25
2018-04-28T02:09:14.821Z,9.25
2018-04-28T02:10:13.174Z,9.23
2018-04-28T02:11:33.169Z,9.22
2018-04-28T02:13:14.693Z,9.21
2018-04-28T02:14:15.226Z,9.23
2018-04-28T02:15:15.277Z,9.28
2018-04-28T02:16:14.837Z,9.34
2018-04-28T02:17:15.532Z,9.43
2018-04-28T02:18:38.200Z,9.59
2018-04-28T02:19:38.886Z,9.64
2018-04-28T02:20:39.523Z,9.69
2018-04-28T02:21:38.444Z,9.80
2018-04-28T02:22:38.380Z,9.92
2018-04-28T02:23:39.234Z,10.04
2018-04-28T02:24:39.188Z,10.15
2018-04-28T02:25:38.958Z,10.20
2018-04-28T02:26:38.831Z,10.28
2018-04-28T02:27:38.907Z,10.35
2018-04-28T02:28:38.449Z,10.37
2018-04-28T02:29:38.541Z,10.40
2018-04-28T02:30:38.827Z,10.41
2018-04-28T02:31:38.295Z,10.40
2018-04-28T02:32:38.017Z,10.41
2018-04-28T02:33:39.466Z,10.49
2018-04-28T02:34:38.549Z,10.57
2018-04-28T02:35:38.108Z,10.64
2018-04-28T02:36:39.284Z,10.67
2018-04-28T02:37:38.344Z,10.67
2018-04-28T02:38:38.817Z,10.71
2018-04-28T02:39:38.433Z,10.71
2018-04-28T02:40:37.892Z,10.76
2018-04-28T02:41:38.458Z,10.79
2018-04-28T02:42:38.081Z,10.84
2018-04-28T02:43:38.601Z,10.84
2018-04-28T02:44:38.293Z,10.82
2018-04-28T02:45:38.743Z,10.86
2018-04-28T02:46:38.658Z,10.87
2018-04-28T02:47:59.104Z,10.89
2018-04-28T02:48:59.862Z,10.94
2018-04-28T02:49:59.444Z,10.96
2018-04-28T02:51:00.028Z,10.97
2018-04-28T02:51:59.572Z,10.99
2018-04-28T02:54:01.278Z,11.05
2018-04-28T02:55:02.133Z,11.07
2018-04-28T02:56:01.987Z,11.05
2018-04-28T02:57:22.421Z,11.07
2018-04-28T02:58:23.396Z,11.10
2018-04-28T02:59:22.874Z,11.11
2018-04-28T03:00:22.821Z,11.11
2018-04-28T03:01:22.379Z,11.14
2018-04-28T03:02:23.050Z,11.12
2018-04-28T03:03:22.719Z,11.12
2018-04-28T03:04:44.312Z,11.14
2018-04-28T03:05:44.853Z,11.12
2018-04-28T03:06:44.857Z,11.12
2018-04-28T03:07:45.541Z,11.12
2018-04-28T03:08:44.975Z,11.14
2018-04-28T03:09:44.806Z,11.15
2018-04-28T03:10:44.308Z,11.17
2018-04-28T03:11:44.812Z,11.15
2018-04-28T03:12:44.327Z,11.14
2018-04-28T03:13:44.886Z,11.14
2018-04-28T03:14:44.857Z,11.14
2018-04-28T03:15:44.570Z,11.15
2018-04-28T03:16:44.451Z,11.17
2018-04-28T03:17:44.182Z,11.15
2018-04-28T03:18:45.220Z,11.14
2018-04-28T03:20:04.403Z,11.12
2018-04-28T03:21:04.987Z,11.12
2018-04-28T03:22:04.973Z,11.11
2018-04-28T03:23:04.970Z,11.12
2018-04-28T03:24:04.482Z,11.11
2018-04-28T03:25:05.397Z,11.11
2018-04-28T03:26:05.389Z,11.10
2018-04-28T03:27:05.408Z,11.08
2018-04-28T03:28:25.779Z,11.08
2018-04-28T03:29:47.475Z,11.07
2018-04-28T03:31:08.768Z,11.05
2018-04-28T03:32:28.760Z,11.04
2018-04-28T03:33:29.302Z,11.05
2018-04-28T03:34:49.564Z,11.08
2018-04-28T03:35:50.138Z,11.12
2018-04-28T03:36:50.006Z,11.12
2018-04-28T03:37:50.041Z,11.15
2018-04-28T03:38:49.869Z,11.18
2018-04-28T03:39:49.741Z,11.22
2018-04-28T03:40:49.266Z,11.22
2018-04-28T03:41:50.440Z,11.26
2018-04-28T03:42:50.140Z,11.30
2018-04-28T03:43:49.720Z,11.33
2018-04-28T03:44:49.222Z,11.35
2018-04-28T03:45:49.688Z,11.36
2018-04-28T03:46:49.763Z,11.40
2018-04-28T03:47:49.439Z,11.40
2018-04-28T03:48:50.141Z,11.40
2018-04-28T03:50:11.551Z,11.40
2018-04-28T03:51:11.226Z,11.37
2018-04-28T03:52:12.313Z,11.37
2018-04-28T03:53:12.241Z,11.37
2018-04-28T03:54:11.890Z,11.32
2018-04-28T03:55:11.452Z,11.32
2018-04-28T03:56:12.205Z,11.29
2018-04-28T03:57:12.264Z,11.27
2018-04-28T03:58:11.991Z,11.26
2018-04-28T03:59:11.710Z,11.25
2018-04-28T04:00:11.769Z,11.25
2018-04-28T04:01:11.598Z,11.26
2018-04-28T04:02:11.354Z,11.26
2018-04-28T04:03:12.064Z,11.25
2018-04-28T04:04:53.326Z,11.19
2018-04-28T04:05:53.973Z,11.17
2018-04-28T04:06:53.620Z,11.18
2018-04-28T04:08:15.638Z,11.15
2018-04-28T04:09:36.229Z,11.14
2018-04-28T04:10:37.220Z,11.14
2018-04-28T04:11:37.248Z,11.12
2018-04-28T04:12:37.254Z,11.12
2018-04-28T04:13:36.866Z,11.12
2018-04-28T04:14:36.817Z,11.11
2018-04-28T04:15:57.486Z,11.12
2018-04-28T04:16:58.333Z,11.12
2018-04-28T04:18:18.703Z,11.14
2018-04-28T04:19:40.125Z,11.14
2018-04-28T04:20:40.837Z,11.12
2018-04-28T04:21:40.608Z,11.12
2018-04-28T04:22:40.186Z,11.10
2018-04-28T04:23:40.129Z,11.11
2018-04-28T04:24:41.311Z,11.11
2018-04-28T04:25:40.178Z,11.11
2018-04-28T04:26:41.269Z,11.14
2018-04-28T04:27:41.285Z,11.18
2018-04-28T04:29:01.703Z,11.19
2018-04-28T04:30:02.595Z,11.19
2018-04-28T04:31:02.462Z,11.22
2018-04-28T04:32:02.673Z,11.18
2018-04-28T04:33:02.524Z,11.17
2018-04-28T04:34:02.575Z,11.18
2018-04-28T04:35:02.846Z,11.19
2018-04-28T04:36:02.839Z,11.18
2018-04-28T04:37:02.600Z,11.17
2018-04-28T04:39:04.745Z,11.15
2018-04-28T04:40:05.484Z,11.15
2018-04-28T04:41:05.412Z,11.15
2018-04-28T04:42:05.208Z,11.18
2018-04-28T04:43:25.602Z,11.25
2018-04-28T04:44:25.368Z,11.35
2018-04-28T04:45:47.598Z,11.43
2018-04-28T04:46:47.746Z,11.44
2018-04-28T04:48:08.285Z,11.48
2018-04-28T04:49:30.294Z,11.50
2018-04-28T04:50:30.257Z,11.51
2018-04-28T04:51:30.023Z,11.50
2018-04-28T04:52:53.513Z,11.51
2018-04-28T04:53:54.562Z,11.51
2018-04-28T04:54:54.361Z,11.54
2018-04-28T04:55:54.201Z,11.60
2018-04-28T04:56:54.563Z,11.60
2018-04-28T04:57:59.046Z,11.65
2018-04-28T04:58:53.837Z,11.68
2018-04-28T04:59:56.172Z,11.69
2018-04-28T05:00:57.740Z,11.73
2018-04-28T05:01:54.651Z,11.77
2018-04-28T05:02:55.093Z,11.83
2018-04-28T05:03:55.094Z,11.86
2018-04-28T05:04:54.323Z,11.90
2018-04-28T05:05:54.122Z,11.95
2018-04-28T05:07:00.927Z,11.95
2018-04-28T05:07:53.654Z,11.99
2018-04-28T05:08:59.495Z,12.02
2018-04-28T05:10:07.902Z,12.06
2018-04-28T05:11:14.602Z,12.09
2018-04-28T05:12:15.458Z,12.15
2018-04-28T05:13:14.605Z,12.18
2018-04-28T05:14:15.428Z,12.21
2018-04-28T05:15:17.639Z,12.22
2018-04-28T05:16:14.762Z,12.27
2018-04-28T05:17:17.247Z,12.29
2018-04-28T05:18:14.782Z,12.35
2018-04-28T05:19:15.283Z,12.40
2018-04-28T05:20:35.616Z,12.47
2018-04-28T05:21:41.370Z,12.55
2018-04-28T05:22:40.218Z,12.57
2018-04-28T05:23:35.106Z,12.62
2018-04-28T05:24:55.671Z,12.67
2018-04-28T05:25:55.828Z,12.68
2018-04-28T05:26:56.280Z,12.76
2018-04-28T05:27:56.259Z,12.82
2018-04-28T05:28:56.045Z,12.91
2018-04-28T05:29:56.155Z,13.00
2018-04-28T05:31:17.720Z,13.13
2018-04-28T05:32:38.256Z,13.30
2018-04-28T05:33:39.072Z,13.37
2018-04-28T05:34:39.316Z,13.39
2018-04-28T05:35:39.360Z,13.41
2018-04-28T05:36:38.739Z,13.49
2018-04-28T05:37:38.966Z,13.57
2018-04-28T05:38:39.215Z,13.65
2018-04-28T05:39:39.359Z,13.68
2018-04-28T05:40:39.118Z,13.68
2018-04-28T05:41:39.197Z,13.81
2018-04-28T05:42:39.913Z,13.99
2018-04-28T05:43:59.787Z,14.07
2018-04-28T05:45:00.613Z,14.14
2018-04-28T05:46:00.696Z,14.25
2018-04-28T05:47:01.064Z,14.28
2018-04-28T05:48:01.104Z,14.25
2018-04-28T05:48:59.797Z,14.32
2018-04-28T05:50:01.024Z,14.44
2018-04-28T05:50:59.950Z,14.65
2018-04-28T05:51:59.778Z,14.81
2018-04-28T05:53:21.303Z,14.72
2018-04-28T05:54:24.063Z,14.78
2018-04-28T05:55:22.298Z,14.94
2018-04-28T05:56:22.608Z,15.07
2018-04-28T05:57:21.538Z,15.17
2018-04-28T05:58:42.870Z,15.24
2018-04-28T06:00:04.957Z,15.29
2018-04-28T06:01:13.861Z,15.29
2018-04-28T06:02:05.334Z,15.49
2018-04-28T06:03:04.448Z,15.67
2018-04-28T06:04:04.333Z,15.75
2018-04-28T06:05:05.591Z,15.92
2018-04-28T06:06:04.786Z,16.16
2018-04-28T06:07:05.191Z,16.13
2018-04-28T06:08:05.195Z,16.15
2018-04-28T06:09:16.458Z,16.10
2018-04-28T06:10:04.654Z,15.88
2018-04-28T06:11:05.451Z,15.62
2018-04-28T06:12:04.779Z,15.58
2018-04-28T06:13:05.478Z,15.54
2018-04-28T06:14:05.672Z,15.64
2018-04-28T06:15:04.477Z,15.68
2018-04-28T06:16:25.553Z,15.62
2018-04-28T06:17:25.802Z,15.54
2018-04-28T06:18:26.053Z,15.52
2018-04-28T06:19:26.055Z,15.37
2018-04-28T06:20:25.865Z,15.22
2018-04-28T06:21:26.206Z,15.22
2018-04-28T06:22:26.260Z,15.19
2018-04-28T06:23:26.453Z,15.18
2018-04-28T06:24:25.291Z,15.09
2018-04-28T06:25:26.602Z,15.03
2018-04-28T06:26:25.475Z,14.97
2018-04-28T06:27:25.279Z,14.88
2018-04-28T06:28:46.570Z,14.91
2018-04-28T06:29:47.031Z,14.96
2018-04-28T06:31:07.972Z,15.17
2018-04-28T06:32:07.838Z,15.25
2018-04-28T06:33:08.015Z,15.29
2018-04-28T06:34:08.013Z,15.54
2018-04-28T06:35:07.912Z,15.98
2018-04-28T06:36:07.767Z,16.24
2018-04-28T06:37:08.606Z,16.46
2018-04-28T06:38:08.497Z,16.58
2018-04-28T06:39:08.506Z,16.54
2018-04-28T06:40:08.735Z,16.31
2018-04-28T06:41:08.006Z,16.17
2018-04-28T06:42:08.216Z,16.02
2018-04-28T06:43:29.270Z,16.00
2018-04-28T06:44:29.623Z,16.13
2018-04-28T06:45:29.763Z,16.31
2018-04-28T06:46:50.146Z,16.29
2018-04-28T06:47:51.175Z,16.38
2018-04-28T06:48:51.426Z,16.46
2018-04-28T06:49:50.380Z,16.49
2018-04-28T06:51:34.792Z,16.36
2018-04-28T06:52:36.014Z,16.42
2018-04-28T06:53:35.792Z,16.51
2018-04-28T06:54:56.372Z,16.64
2018-04-28T06:55:57.195Z,16.79
2018-04-28T06:57:17.845Z,17.05
2018-04-28T06:58:18.763Z,17.20
2018-04-28T06:59:19.112Z,17.19
2018-04-28T07:00:38.617Z,17.06
2018-04-28T07:01:39.871Z,17.11
2018-04-28T07:02:39.495Z,17.08
2018-04-28T07:03:40.257Z,16.99
2018-04-28T07:04:40.061Z,16.94
2018-04-28T07:05:40.021Z,16.93
2018-04-28T07:06:40.716Z,16.89
2018-04-28T07:07:39.729Z,16.84
2018-04-28T07:08:40.005Z,16.99
2018-04-28T07:09:39.410Z,17.09
2018-04-28T07:10:40.897Z,17.19
2018-04-28T07:11:39.176Z,17.34
2018-04-28T07:13:00.159Z,17.49
2018-04-28T07:14:00.184Z,17.56
2018-04-28T07:15:00.704Z,17.65
2018-04-28T07:16:00.621Z,17.65
2018-04-28T07:17:00.369Z,17.52
2018-04-28T07:18:00.363Z,17.48
2018-04-28T07:19:21.296Z,17.56
2018-04-28T07:20:21.708Z,17.51
2018-04-28T07:21:21.756Z,17.34
2018-04-28T07:22:22.009Z,17.26
2018-04-28T07:23:22.480Z,17.12
2018-04-28T07:24:21.318Z,17.01
2018-04-28T07:25:21.700Z,16.93
2018-04-28T07:26:21.571Z,16.97
2018-04-28T07:27:21.345Z,17.09
2018-04-28T07:28:21.709Z,17.16
2018-04-28T07:29:22.005Z,17.20
2018-04-28T07:30:22.028Z,17.23
2018-04-28T07:31:21.942Z,17.49
2018-04-28T07:32:22.173Z,17.68
2018-04-28T07:33:22.144Z,17.65
2018-04-28T07:34:42.972Z,17.56
2018-04-28T07:35:42.686Z,17.54
2018-04-28T07:36:44.114Z,17.46
2018-04-28T07:37:44.057Z,17.44
2018-04-28T07:38:44.018Z,17.48
2018-04-28T07:39:43.275Z,17.44
2018-04-28T07:40:43.362Z,17.42
2018-04-28T07:41:43.545Z,17.33
2018-04-28T07:42:43.900Z,17.27
2018-04-28T07:43:43.218Z,17.22
2018-04-28T07:44:43.995Z,17.12
2018-04-28T07:45:43.627Z,17.15
2018-04-28T07:47:05.267Z,17.05
2018-04-28T07:48:05.258Z,17.02
2018-04-28T07:49:06.022Z,16.94
2018-04-28T07:50:27.129Z,16.96
2018-04-28T07:51:27.412Z,16.99
2018-04-28T07:52:28.772Z,16.97
2018-04-28T07:53:28.347Z,16.87
2018-04-28T07:54:29.250Z,16.75
2018-04-28T07:55:27.162Z,16.68
2018-04-28T07:56:27.603Z,16.61
2018-04-28T07:57:27.684Z,16.66
2018-04-28T07:58:27.543Z,16.57
2018-04-28T07:59:27.850Z,16.57
2018-04-28T08:00:55.702Z,16.57
2018-04-28T08:01:49.946Z,16.64
2018-04-28T08:03:09.734Z,16.71
2018-04-28T08:04:31.524Z,16.58
2018-04-28T08:05:32.214Z,16.53
2018-04-28T08:06:32.702Z,16.36
2018-04-28T08:07:31.608Z,16.31
2018-04-28T08:08:32.020Z,16.23
2018-04-28T08:09:32.359Z,16.21
2018-04-28T08:10:53.641Z,16.10
2018-04-28T08:12:15.453Z,16.10
2018-04-28T08:13:16.160Z,16.15
2018-04-28T08:14:15.178Z,16.20
2018-04-28T08:15:15.204Z,16.26
2018-04-28T08:16:17.039Z,16.31
2018-04-28T08:17:15.881Z,16.38
2018-04-28T08:18:15.767Z,16.47
2018-04-28T08:19:15.781Z,16.43
2018-04-28T08:20:16.176Z,16.36
2018-04-28T08:21:16.284Z,16.38
2018-04-28T08:22:16.263Z,16.32
2018-04-28T08:23:15.385Z,16.28
2018-04-28T08:24:15.720Z,16.31
2018-04-28T08:25:36.664Z,16.23
2018-04-28T08:26:36.607Z,16.17
2018-04-28T08:27:36.854Z,16.21
2018-04-28T08:28:37.783Z,16.26
2018-04-28T08:29:36.646Z,16.36
2018-04-28T08:30:36.756Z,16.41
2018-04-28T08:31:36.757Z,16.46
2018-04-28T08:32:36.756Z,16.54
2018-04-28T08:33:36.854Z,16.68
2018-04-28T08:34:37.272Z,16.75
2018-04-28T08:35:36.177Z,16.94
2018-04-28T08:36:36.256Z,17.02
2018-04-28T08:37:38.321Z,17.19
2018-04-28T08:38:37.334Z,17.38
2018-04-28T08:39:36.367Z,17.60
2018-04-28T08:40:36.222Z,17.92
2018-04-28T08:41:58.140Z,18.18
2018-04-28T08:43:19.894Z,18.19
2018-04-28T08:44:21.361Z,18.28
2018-04-28T08:45:21.116Z,18.40
2018-04-28T08:46:20.220Z,18.53
2018-04-28T08:47:20.709Z,18.52
2018-04-28T08:48:21.380Z,18.55
2018-04-28T08:49:20.701Z,18.59
2018-04-28T08:50:20.960Z,18.70
2018-04-28T08:51:19.836Z,18.95
2018-04-28T08:52:20.964Z,19.00
2018-04-28T08:53:20.903Z,19.12
2018-04-28T08:54:20.991Z,19.21
2018-04-28T08:55:22.454Z,19.27
2018-04-28T08:56:20.330Z,19.29
2018-04-28T08:57:41.481Z,19.14
2018-04-28T08:58:41.462Z,19.08
2018-04-28T08:59:41.988Z,19.04
2018-04-28T09:00:42.137Z,18.93
2018-04-28T09:01:42.609Z,18.78
2018-04-28T09:02:42.023Z,18.77
2018-04-28T09:03:42.157Z,18.75
2018-04-28T09:05:02.946Z,18.50
2018-04-28T09:06:02.777Z,18.41
2018-04-28T09:07:02.761Z,18.44
2018-04-28T09:08:04.168Z,18.47
2018-04-28T09:09:03.006Z,18.26
2018-04-28T09:10:02.865Z,17.97
2018-04-28T09:11:03.547Z,17.94
2018-04-28T09:12:03.737Z,17.80
2018-04-28T09:13:03.641Z,17.83
2018-04-28T09:14:03.620Z,17.78
2018-04-28T09:15:03.013Z,17.78
2018-04-28T09:16:03.210Z,17.76
2018-04-28T09:17:03.288Z,17.85
2018-04-28T09:18:03.644Z,17.94
2018-04-28T09:19:03.475Z,18.03
2018-04-28T09:20:03.856Z,18.22
2018-04-28T09:21:03.214Z,18.22
2018-04-28T09:22:24.510Z,18.40
2018-04-28T09:23:24.781Z,18.62
2018-04-28T09:24:24.586Z,18.75
2018-04-28T09:25:24.388Z,18.90
2018-04-28T09:26:24.304Z,18.83
2018-04-28T09:27:24.346Z,18.40
2018-04-28T09:28:24.606Z,18.19
2018-04-28T09:29:24.846Z,17.95
2018-04-28T09:30:25.800Z,17.90
2018-04-28T09:31:24.784Z,17.92
2018-04-28T09:32:24.586Z,17.90
2018-04-28T09:33:24.806Z,17.85
2018-04-28T09:34:25.163Z,17.63
2018-04-28T09:35:24.957Z,17.51
2018-04-28T09:36:25.103Z,17.46
2018-04-28T09:37:25.215Z,17.51
2018-04-28T09:38:24.527Z,17.45
2018-04-28T09:39:24.754Z,17.45
2018-04-28T09:40:24.968Z,17.52
2018-04-28T09:41:25.432Z,17.59
2018-04-28T09:42:24.607Z,17.56
2018-04-28T09:43:24.417Z,17.56
2018-04-28T09:44:24.685Z,17.67
2018-04-28T09:45:25.062Z,18.70
2018-04-28T09:46:24.205Z,19.52
2018-04-28T09:47:24.704Z,20.39
2018-04-28T09:48:24.929Z,20.51
2018-04-28T09:49:24.863Z,21.12
2018-04-28T09:50:24.987Z,21.73
2018-04-28T09:51:25.217Z,22.29
2018-04-28T09:52:24.513Z,22.73
2018-04-28T09:53:24.685Z,23.13
2018-04-28T09:54:24.811Z,23.28
2018-04-28T09:55:25.006Z,23.61
2018-04-28T09:56:46.269Z,23.93
2018-04-28T09:57:46.673Z,24.45
2018-04-28T09:58:46.611Z,25.07
2018-04-28T10:00:28.820Z,25.21
2018-04-28T10:01:29.029Z,25.48
2018-04-28T10:02:28.807Z,25.91
2018-04-28T10:03:29.024Z,26.06
2018-04-28T10:04:28.961Z,25.11
2018-04-28T10:05:29.286Z,25.25
2018-04-28T10:06:29.462Z,25.66
2018-04-28T10:07:33.248Z,26.33
2018-04-28T10:08:29.266Z,26.92
2018-04-28T10:09:30.026Z,27.30
2018-04-28T10:10:29.231Z,26.99
2018-04-28T10:11:29.317Z,26.59
2018-04-28T10:12:29.618Z,26.21
2018-04-28T10:13:28.900Z,25.40
2018-04-28T10:14:29.409Z,25.14
2018-04-28T10:15:28.471Z,25.17
2018-04-28T10:16:29.677Z,24.24
2018-04-28T10:17:49.797Z,23.44
2018-04-28T10:18:49.567Z,23.03
2018-04-28T10:19:49.529Z,22.87
2018-04-28T10:21:12.047Z,22.41
2018-04-28T10:22:33.437Z,22.78
2018-04-28T10:23:35.225Z,22.96
2018-04-28T10:24:34.095Z,22.73
2018-04-28T10:26:17.325Z,22.30
2018-04-28T10:27:18.600Z,21.96
2018-04-28T10:28:17.628Z,21.73
2018-04-28T10:29:18.051Z,21.51
2018-04-28T10:30:17.542Z,21.33
2018-04-28T10:31:17.928Z,21.11
2018-04-28T10:32:16.821Z,20.77
2018-04-28T10:33:20.543Z,20.51
2018-04-28T10:34:17.683Z,20.36
2018-04-28T10:35:16.868Z,20.24
2018-04-28T10:36:37.985Z,20.07
2018-04-28T10:37:39.773Z,19.95
2018-04-28T10:38:38.715Z,19.81
2018-04-28T10:39:39.128Z,19.63
2018-04-28T10:40:39.085Z,19.39
2018-04-28T10:41:39.287Z,19.19
2018-04-28T10:42:38.600Z,18.96
2018-04-28T10:43:38.689Z,18.90
2018-04-28T10:44:39.342Z,18.89
2018-04-28T10:45:38.756Z,18.80
2018-04-28T10:47:00.910Z,18.53
2018-04-28T10:48:01.144Z,18.40
2018-04-28T10:49:23.226Z,18.47
2018-04-28T10:50:22.598Z,18.55
2018-04-28T10:51:23.205Z,18.71
2018-04-28T10:52:22.023Z,18.65
2018-04-28T10:53:43.217Z,18.68
2018-04-28T10:54:43.415Z,18.73
2018-04-28T10:55:43.424Z,18.73
2018-04-28T10:56:43.279Z,18.75
2018-04-28T10:57:43.539Z,18.81
2018-04-28T10:59:05.693Z,19.04
2018-04-28T11:00:06.396Z,19.09
2018-04-28T11:01:06.546Z,19.08
2018-04-28T11:02:05.931Z,18.99
2018-04-28T11:03:05.941Z,19.02
2018-04-28T11:04:06.189Z,19.00
2018-04-28T11:05:06.585Z,19.07
2018-04-28T11:06:06.475Z,19.21
2018-04-28T11:07:05.441Z,19.27
2018-04-28T11:08:06.350Z,19.31
2018-04-28T11:09:06.214Z,19.39
2018-04-28T11:10:47.869Z,19.63
2018-04-28T11:11:47.730Z,19.81
2018-04-28T11:12:48.825Z,19.86
2018-04-28T11:13:47.786Z,19.77
2018-04-28T11:14:48.233Z,19.69
2018-04-28T11:15:48.344Z,19.77
2018-04-28T11:16:48.960Z,19.96
2018-04-28T11:17:48.518Z,19.91
2018-04-28T11:19:32.605Z,19.91
2018-04-28T11:20:32.943Z,19.81
2018-04-28T11:21:33.769Z,19.56
2018-04-28T11:22:33.344Z,19.51
2018-04-28T11:23:32.494Z,19.59
2018-04-28T11:24:32.993Z,19.59
2018-04-28T11:25:33.089Z,19.58
2018-04-28T11:26:53.940Z,19.55
2018-04-28T11:28:16.227Z,19.66
2018-04-28T11:29:16.100Z,19.67
2018-04-28T11:30:16.424Z,19.54
2018-04-28T11:31:16.678Z,19.37
2018-04-28T11:32:16.513Z,19.19
2018-04-28T11:33:37.469Z,19.02
2018-04-28T11:34:37.316Z,18.93
2018-04-28T11:36:41.265Z,18.73
2018-04-28T11:37:40.248Z,18.65
2018-04-28T11:38:40.756Z,18.56
2018-04-28T11:40:02.071Z,18.49
2018-04-28T11:41:01.990Z,18.41
2018-04-28T11:42:03.256Z,18.37
2018-04-28T11:43:02.142Z,18.28
2018-04-28T11:44:07.407Z,18.25
2018-04-28T11:45:23.204Z,18.18
2018-04-28T11:46:24.454Z,18.11
2018-04-28T11:47:23.805Z,18.19
2018-04-28T11:48:24.292Z,18.23
2018-04-28T11:49:23.250Z,18.22
2018-04-28T11:50:23.677Z,18.18
2018-04-28T11:51:23.571Z,18.25
2018-04-28T11:52:23.709Z,18.38
2018-04-28T11:53:24.597Z,18.38
2018-04-28T11:54:23.456Z,18.43
2018-04-28T11:55:23.394Z,18.43
2018-04-28T11:56:44.983Z,18.37
2018-04-28T11:58:06.692Z,18.35
2018-04-28T11:59:07.900Z,18.38
2018-04-28T12:00:07.283Z,18.40
2018-04-28T12:01:08.225Z,18.34
2018-04-28T12:02:07.826Z,18.29
2018-04-28T12:03:07.183Z,18.20
2018-04-28T12:04:07.736Z,18.18
2018-04-28T12:05:28.096Z,18.34
2018-04-28T12:06:29.597Z,18.40
2018-04-28T12:07:30.365Z,18.44
2018-04-28T12:08:28.169Z,18.49
2018-04-28T12:09:29.522Z,18.59
2018-04-28T12:10:28.657Z,18.62
2018-04-28T12:11:28.871Z,18.78
2018-04-28T12:12:28.948Z,18.88
2018-04-28T12:13:29.440Z,18.93
2018-04-28T12:14:28.596Z,19.12
2018-04-28T12:15:30.029Z,19.19
2018-04-28T12:16:30.298Z,19.31
2018-04-28T12:17:28.629Z,19.66
2018-04-28T12:18:28.765Z,19.81
2018-04-28T12:19:29.217Z,20.14
2018-04-28T12:20:50.108Z,20.16
2018-04-28T12:21:50.279Z,20.18
2018-04-28T12:22:50.541Z,20.28
2018-04-28T12:23:50.623Z,20.34
2018-04-28T12:24:50.341Z,20.37
2018-04-28T12:25:50.027Z,20.51
2018-04-28T12:27:11.600Z,20.56
2018-04-28T12:28:12.018Z,20.44
2018-04-28T12:29:11.998Z,20.43
2018-04-28T12:30:12.297Z,20.36
2018-04-28T12:31:13.210Z,20.19
2018-04-28T12:32:12.650Z,20.13
2018-04-28T12:33:54.070Z,20.13
2018-04-28T12:34:53.997Z,20.11
2018-04-28T12:35:53.871Z,20.04
2018-04-28T12:36:54.155Z,20.19
2018-04-28T12:37:53.864Z,20.24
2018-04-28T12:38:54.360Z,20.29
2018-04-28T12:40:15.207Z,20.56
2018-04-28T12:41:37.261Z,20.75
2018-04-28T12:42:57.496Z,20.75
2018-04-28T12:43:57.769Z,20.84
2018-04-28T12:44:57.658Z,20.97
2018-04-28T12:45:57.930Z,21.11
2018-04-28T12:46:58.243Z,21.20
2018-04-28T12:47:57.446Z,21.18
2018-04-28T12:48:57.271Z,21.22
2018-04-28T12:49:57.120Z,21.43
2018-04-28T12:50:59.535Z,21.60
2018-04-28T12:51:57.588Z,21.57
2018-04-28T12:52:57.402Z,22.15
2018-04-28T12:53:58.813Z,22.55
2018-04-28T12:54:57.911Z,22.76
2018-04-28T12:55:57.982Z,22.59
2018-04-28T12:56:58.220Z,22.22
2018-04-28T12:57:57.519Z,22.11
2018-04-28T12:58:57.881Z,22.29
2018-04-28T12:59:58.029Z,22.04
2018-04-28T13:00:57.800Z,22.00
2018-04-28T13:01:58.435Z,22.07
2018-04-28T13:03:39.440Z,22.50
2018-04-28T13:05:01.116Z,22.18
2018-04-28T13:06:01.539Z,22.44
2018-04-28T13:07:01.621Z,23.08
2018-04-28T13:08:22.439Z,23.08
2018-04-28T13:10:05.889Z,23.55
2018-04-28T13:11:05.819Z,23.15
2018-04-28T13:12:05.735Z,22.94
2018-04-28T13:13:48.330Z,23.48
2018-04-28T13:14:48.610Z,23.98
2018-04-28T13:15:50.544Z,24.40
2018-04-28T13:16:48.774Z,24.35
2018-04-28T13:17:48.715Z,24.58
2018-04-28T13:18:48.800Z,24.74
2018-04-28T13:19:48.981Z,24.48
2018-04-28T13:21:08.930Z,24.32
2018-04-28T13:22:08.737Z,24.16
2018-04-28T13:23:09.425Z,24.17
2018-04-28T13:24:30.277Z,23.63
2018-04-28T13:25:31.302Z,23.56
2018-04-28T13:26:51.855Z,23.66
2018-04-28T13:27:51.816Z,23.81
2018-04-28T13:28:52.556Z,23.92
2018-04-28T13:29:51.872Z,23.80
2018-04-28T13:30:52.064Z,23.46
2018-04-28T13:31:50.996Z,23.48
2018-04-28T13:32:51.903Z,23.61
2018-04-28T13:33:56.298Z,23.80
2018-04-28T13:34:51.390Z,23.92
2018-04-28T13:37:16.207Z,24.06
2018-04-28T13:38:16.413Z,24.13
2018-04-28T13:39:16.701Z,24.11
2018-04-28T13:40:19.330Z,23.84
2018-04-28T13:41:16.347Z,23.87
2018-04-28T13:42:16.702Z,23.69
2018-04-28T13:43:17.389Z,23.93
2018-04-28T13:44:37.480Z,23.96
2018-04-28T13:45:37.666Z,24.03
2018-04-28T13:46:37.825Z,23.92
2018-04-28T13:47:37.592Z,24.06